createdAt,value
2022-08-24T00:00:41.099Z,32.84
2022-08-24T00:03:12.029Z,33.00
2022-08-24T00:05:39.936Z,33.22
2022-08-24T00:08:07.359Z,32.91
2022-08-24T00:10:34.859Z,32.71
2022-08-24T00:13:02.163Z,32.40
2022-08-24T00:15:29.485Z,32.97
2022-08-24T00:17:57.314Z,32.75
2022-08-24T00:20:24.675Z,32.92
2022-08-24T00:22:51.979Z,32.88
2022-08-24T00:25:20.749Z,32.91
2022-08-24T00:27:48.420Z,32.83
2022-08-24T00:30:18.622Z,33.32
2022-08-24T00:32:47.854Z,33.27
2022-08-24T00:35:18.570Z,33.32
2022-08-24T00:37:47.824Z,33.38
2022-08-24T00:40:30.778Z,33.40
2022-08-24T00:43:04.377Z,33.52
2022-08-24T00:45:37.679Z,34.16
2022-08-24T00:48:12.250Z,34.40
2022-08-24T00:50:49.196Z,34.29
2022-08-24T00:53:24.945Z,34.75
2022-08-24T00:55:57.614Z,34.91
2022-08-24T00:58:37.934Z,34.82
2022-08-24T01:01:08.106Z,35.09
2022-08-24T01:03:37.866Z,35.18
2022-08-24T01:06:06.687Z,35.82
2022-08-24T01:08:34.569Z,35.69
2022-08-24T01:11:06.496Z,36.07
2022-08-24T01:13:35.081Z,36.30
2022-08-24T01:16:07.250Z,36.84
2022-08-24T01:19:02.481Z,36.66
2022-08-24T01:22:01.687Z,37.26
2022-08-24T01:24:29.451Z,37.25
2022-08-24T01:26:57.937Z,37.73
2022-08-24T01:29:29.186Z,37.82
2022-08-24T01:31:58.948Z,37.60
2022-08-24T01:34:26.904Z,37.70
2022-08-24T01:37:00.545Z,37.91
2022-08-24T01:39:35.337Z,38.07
2022-08-24T01:42:03.706Z,37.64
2022-08-24T01:44:37.184Z,38.12
2022-08-24T01:47:07.603Z,38.26
2022-08-24T01:49:39.624Z,38.03
2022-08-24T01:52:10.598Z,38.56
2022-08-24T01:54:39.148Z,38.65
2022-08-24T01:57:16.042Z,38.68
2022-08-24T01:59:45.402Z,39.07
2022-08-24T02:02:22.241Z,39.39
2022-08-24T02:04:49.574Z,39.40
2022-08-24T02:07:18.574Z,39.61
2022-08-24T02:09:46.580Z,39.58
2022-08-24T02:12:15.488Z,39.46
2022-08-24T02:14:43.704Z,40.02
2022-08-24T02:17:12.059Z,40.19
2022-08-24T02:19:39.887Z,40.34
2022-08-24T02:22:08.533Z,40.65
2022-08-24T02:24:38.726Z,40.91
2022-08-24T02:27:07.172Z,40.98
2022-08-24T02:29:35.303Z,40.99
2022-08-24T02:32:03.792Z,41.13
2022-08-24T02:34:31.623Z,41.26
2022-08-24T02:37:00.076Z,41.32
2022-08-24T02:39:28.199Z,41.15
2022-08-24T02:41:56.312Z,41.09
2022-08-24T02:44:23.587Z,41.30
2022-08-24T02:46:51.479Z,40.94
2022-08-24T02:49:21.644Z,41.20
2022-08-24T02:51:51.034Z,41.09
2022-08-24T02:54:21.517Z,40.89
2022-08-24T02:56:52.476Z,40.56
2022-08-24T02:59:20.436Z,40.65
2022-08-24T03:01:50.258Z,40.37
2022-08-24T03:04:20.079Z,40.30
2022-08-24T03:06:47.508Z,40.04
2022-08-24T03:09:14.767Z,39.85
2022-08-24T03:11:44.286Z,40.06
2022-08-24T03:14:14.288Z,39.79
2022-08-24T03:16:42.101Z,39.60
2022-08-24T03:19:09.379Z,39.85
2022-08-24T03:21:38.537Z,39.75
2022-08-24T03:24:06.325Z,39.73
2022-08-24T03:26:33.992Z,39.79
2022-08-24T03:29:01.480Z,39.67
2022-08-24T03:31:31.482Z,39.69
2022-08-24T03:34:00.877Z,39.88
2022-08-24T03:36:28.396Z,39.76
2022-08-24T03:38:56.282Z,39.63
2022-08-24T03:41:23.752Z,39.69
2022-08-24T03:43:51.217Z,39.96
2022-08-24T03:46:25.375Z,39.86
2022-08-24T03:48:54.737Z,39.31
2022-08-24T03:51:27.627Z,39.58
2022-08-24T03:53:57.677Z,39.34
2022-08-24T03:56:28.391Z,39.33
2022-08-24T03:58:57.548Z,39.09
2022-08-24T04:01:29.392Z,39.15
2022-08-24T04:03:59.469Z,38.98
2022-08-24T04:06:31.500Z,38.65
2022-08-24T04:08:58.902Z,38.79
2022-08-24T04:11:29.794Z,38.77
2022-08-24T04:13:59.335Z,38.39
2022-08-24T04:16:27.816Z,38.59
2022-08-24T04:19:17.121Z,38.40
2022-08-24T04:21:44.670Z,38.18
2022-08-24T04:24:13.261Z,38.28
2022-08-24T04:26:44.630Z,38.08
2022-08-24T04:29:17.744Z,38.14
2022-08-24T04:31:53.853Z,37.97
2022-08-24T04:34:22.510Z,37.86
2022-08-24T04:36:51.566Z,37.78
2022-08-24T04:39:18.811Z,37.65
2022-08-24T04:42:05.511Z,37.28
2022-08-24T04:44:38.420Z,37.44
2022-08-24T04:47:06.200Z,37.17
2022-08-24T04:49:33.698Z,37.21
2022-08-24T04:52:01.535Z,36.89
2022-08-24T04:54:29.624Z,36.93
2022-08-24T04:57:18.676Z,36.69
2022-08-24T04:59:47.782Z,36.73
2022-08-24T05:02:15.243Z,36.40
2022-08-24T05:04:45.337Z,36.32
2022-08-24T05:07:12.572Z,36.10
2022-08-24T05:09:42.008Z,35.97
2022-08-24T05:12:10.612Z,35.97
2022-08-24T05:14:41.867Z,35.81
2022-08-24T05:17:10.561Z,35.69
2022-08-24T05:19:38.051Z,35.43
2022-08-24T05:22:05.767Z,35.21
2022-08-24T05:24:33.619Z,35.17
2022-08-24T05:27:01.061Z,35.21
2022-08-24T05:29:28.896Z,34.59
2022-08-24T05:31:56.494Z,34.68
2022-08-24T05:34:24.730Z,34.68
2022-08-24T05:36:52.114Z,34.40
2022-08-24T05:39:36.016Z,34.38
2022-08-24T05:42:08.361Z,34.35
2022-08-24T05:44:39.040Z,34.19
2022-08-24T05:47:06.683Z,33.64
2022-08-24T05:49:37.241Z,33.51
2022-08-24T05:52:06.947Z,33.81
2022-08-24T05:54:34.521Z,33.19
2022-08-24T05:57:05.363Z,33.20
2022-08-24T05:59:51.307Z,32.65
2022-08-24T06:02:20.579Z,32.53
2022-08-24T06:04:47.906Z,32.35
2022-08-24T06:07:16.038Z,32.26
2022-08-24T06:09:48.884Z,31.66
2022-08-24T06:12:16.687Z,31.49
2022-08-24T06:14:48.031Z,31.18
2022-08-24T06:17:20.339Z,31.11
2022-08-24T06:19:47.669Z,31.02
2022-08-24T06:22:14.885Z,30.67
2022-08-24T06:25:00.652Z,31.12
2022-08-24T06:27:29.551Z,30.85
2022-08-24T06:30:04.200Z,30.80
2022-08-24T06:32:50.225Z,30.25
2022-08-24T06:35:33.701Z,30.36
2022-08-24T06:38:01.170Z,30.17
2022-08-24T06:40:29.822Z,29.97
2022-08-24T06:43:03.216Z,29.38
2022-08-24T06:45:43.877Z,29.57
2022-08-24T06:48:13.561Z,29.31
2022-08-24T06:50:41.066Z,29.29
2022-08-24T06:53:09.504Z,29.33
2022-08-24T06:55:36.758Z,29.18
2022-08-24T06:58:04.308Z,28.93
2022-08-24T07:00:31.495Z,28.73
2022-08-24T07:02:58.945Z,28.65
2022-08-24T07:05:27.432Z,28.39
2022-08-24T07:08:13.259Z,28.46
2022-08-24T07:10:41.902Z,28.35
2022-08-24T07:13:11.765Z,28.47
2022-08-24T07:15:39.497Z,27.60
2022-08-24T07:18:16.285Z,28.23
2022-08-24T07:20:48.238Z,27.35
2022-08-24T07:23:41.700Z,27.72
2022-08-24T07:26:22.003Z,27.47
2022-08-24T07:29:05.392Z,27.46
2022-08-24T07:31:46.307Z,27.23
2022-08-24T07:34:34.162Z,27.37
2022-08-24T07:37:02.035Z,27.44
2022-08-24T07:39:30.708Z,27.24
2022-08-24T07:42:12.967Z,27.30
2022-08-24T07:44:40.521Z,27.37
2022-08-24T07:47:34.332Z,27.21
2022-08-24T07:49:56.482Z,27.14
2022-08-24T07:52:23.725Z,26.90
2022-08-24T07:54:51.005Z,26.87
2022-08-24T07:57:18.823Z,26.87
2022-08-24T07:59:47.805Z,27.11
2022-08-24T08:02:15.321Z,26.98
2022-08-24T08:04:48.041Z,26.64
2022-08-24T08:07:17.615Z,27.10
2022-08-24T08:09:47.076Z,27.02
2022-08-24T08:12:14.336Z,26.77
2022-08-24T08:14:53.422Z,26.29
2022-08-24T08:17:20.719Z,26.62
2022-08-24T08:19:48.216Z,26.13
2022-08-24T08:22:33.840Z,26.23
2022-08-24T08:25:22.287Z,25.72
2022-08-24T08:27:49.800Z,25.79
2022-08-24T08:30:18.181Z,25.77
2022-08-24T08:32:45.475Z,25.49
2022-08-24T08:35:13.868Z,26.00
2022-08-24T08:37:42.345Z,26.55
2022-08-24T08:40:28.707Z,25.95
2022-08-24T08:43:09.338Z,25.77
2022-08-24T08:45:55.643Z,25.00
2022-08-24T08:48:50.490Z,24.82
2022-08-24T08:51:42.294Z,25.00
2022-08-24T08:54:55.272Z,25.11
2022-08-24T08:57:39.258Z,24.88
2022-08-24T09:00:25.251Z,25.27
2022-08-24T09:03:04.054Z,24.23
2022-08-24T09:05:42.315Z,24.34
2022-08-24T09:08:25.362Z,24.29
2022-08-24T09:11:55.865Z,24.23
2022-08-24T09:14:23.312Z,24.25
2022-08-24T09:17:19.449Z,24.19
2022-08-24T09:19:55.738Z,24.01
2022-08-24T09:22:23.581Z,24.40
2022-08-24T09:24:54.904Z,24.33
2022-08-24T09:27:54.461Z,24.32
2022-08-24T09:30:27.836Z,24.00
2022-08-24T09:33:11.727Z,24.47
2022-08-24T09:36:13.351Z,24.08
2022-08-24T09:39:00.610Z,24.16
2022-08-24T09:41:44.266Z,24.39
2022-08-24T09:44:48.212Z,24.41
2022-08-24T09:47:49.483Z,24.17
2022-08-24T09:50:22.671Z,24.25
2022-08-24T09:53:02.195Z,23.82
2022-08-24T09:55:48.229Z,24.04
2022-08-24T09:58:18.471Z,24.02
2022-08-24T10:00:52.171Z,23.92
2022-08-24T10:03:49.987Z,24.04
2022-08-24T10:06:28.906Z,24.30
2022-08-24T10:08:59.335Z,23.87
2022-08-24T10:11:44.632Z,23.40
2022-08-24T10:14:30.599Z,23.34
2022-08-24T10:17:21.855Z,23.36
2022-08-24T10:20:09.109Z,23.27
2022-08-24T10:23:05.156Z,23.55
2022-08-24T10:25:52.960Z,22.51
2022-08-24T10:28:58.051Z,22.48
2022-08-24T10:31:34.491Z,22.76
2022-08-24T10:34:28.170Z,22.84
2022-08-24T10:36:55.409Z,22.89
2022-08-24T10:39:51.971Z,22.45
2022-08-24T10:42:56.952Z,22.58
2022-08-24T10:45:57.519Z,22.29
2022-08-24T10:48:27.773Z,22.51
2022-08-24T10:51:34.811Z,22.54
2022-08-24T10:54:03.093Z,22.76
2022-08-24T10:56:42.445Z,22.12
2022-08-24T10:59:48.404Z,22.46
2022-08-24T11:02:41.421Z,21.89
2022-08-24T11:05:32.955Z,21.93
2022-08-24T11:08:05.590Z,22.13
2022-08-24T11:10:39.726Z,21.83
2022-08-24T11:13:23.204Z,22.16
2022-08-24T11:15:56.300Z,22.14
2022-08-24T11:18:24.096Z,22.14
2022-08-24T11:20:54.749Z,21.87
2022-08-24T11:23:31.713Z,21.85
2022-08-24T11:26:03.307Z,21.86
2022-08-24T11:28:58.003Z,21.98
2022-08-24T11:31:40.687Z,22.11
2022-08-24T11:34:15.972Z,22.13
2022-08-24T11:36:43.335Z,22.45
2022-08-24T11:39:12.562Z,21.50
2022-08-24T11:41:58.596Z,21.61
2022-08-24T11:44:45.671Z,21.89
2022-08-24T11:47:26.338Z,20.91
2022-08-24T11:50:14.767Z,21.17
2022-08-24T11:53:24.561Z,20.84
2022-08-24T11:56:10.490Z,21.11
2022-08-24T11:58:55.368Z,20.74
2022-08-24T12:01:51.782Z,20.37
2022-08-24T12:04:38.063Z,20.62
2022-08-24T12:07:33.074Z,20.64
2022-08-24T12:10:15.763Z,20.40
2022-08-24T12:12:43.031Z,20.88
2022-08-24T12:15:13.384Z,20.30
2022-08-24T12:17:55.749Z,20.12
2022-08-24T12:20:34.112Z,20.21
2022-08-24T12:23:08.830Z,19.56
2022-08-24T12:25:55.614Z,19.58
2022-08-24T12:28:29.309Z,19.69
2022-08-24T12:31:03.622Z,19.54
2022-08-24T12:33:37.440Z,20.04
2022-08-24T12:36:33.733Z,19.50
2022-08-24T12:39:12.308Z,19.37
2022-08-24T12:42:08.678Z,19.97
2022-08-24T12:44:45.665Z,20.25
2022-08-24T12:47:25.521Z,19.51
2022-08-24T12:50:11.596Z,19.35
2022-08-24T12:52:55.992Z,19.32
2022-08-24T12:55:52.659Z,19.75
2022-08-24T12:59:05.972Z,19.35
2022-08-24T13:01:38.162Z,19.47
2022-08-24T13:04:19.770Z,19.69
2022-08-24T13:06:59.829Z,19.41
2022-08-24T13:09:29.548Z,19.61
2022-08-24T13:12:00.885Z,19.36
2022-08-24T13:14:30.325Z,19.47
2022-08-24T13:16:57.676Z,19.20
2022-08-24T13:19:28.762Z,19.30
2022-08-24T13:21:58.897Z,19.36
2022-08-24T13:24:30.131Z,19.40
2022-08-24T13:27:13.163Z,19.29
2022-08-24T13:29:42.344Z,19.32
2022-08-24T13:32:22.473Z,19.07
2022-08-24T13:34:51.498Z,19.48
2022-08-24T13:37:24.699Z,19.20
2022-08-24T13:40:20.098Z,19.34
2022-08-24T13:43:25.183Z,19.74
2022-08-24T13:46:22.491Z,19.89
2022-08-24T13:49:18.713Z,20.06
2022-08-24T13:51:57.563Z,19.10
2022-08-24T13:55:06.046Z,19.05
2022-08-24T13:57:51.561Z,18.99
2022-08-24T14:00:49.843Z,19.12
2022-08-24T14:03:27.832Z,19.41
2022-08-24T14:06:20.608Z,19.23
2022-08-24T14:08:48.709Z,19.45
2022-08-24T14:11:36.067Z,18.93
2022-08-24T14:14:18.062Z,19.15
2022-08-24T14:17:38.360Z,18.69
2022-08-24T14:20:15.046Z,18.61
2022-08-24T14:23:11.285Z,18.77
2022-08-24T14:25:39.081Z,19.11
2022-08-24T14:28:41.919Z,18.53
2022-08-24T14:31:21.215Z,18.68
2022-08-24T14:34:24.086Z,17.90
2022-08-24T14:37:06.364Z,18.69
2022-08-24T14:39:58.607Z,18.66
2022-08-24T14:42:44.576Z,18.70
2022-08-24T14:45:37.432Z,18.74
2022-08-24T14:48:27.824Z,18.38
2022-08-24T14:51:02.182Z,18.63
2022-08-24T14:53:47.596Z,18.45
2022-08-24T14:56:32.028Z,18.45
2022-08-24T14:59:12.021Z,18.78
2022-08-24T15:01:46.494Z,18.95
2022-08-24T15:04:37.791Z,18.83
2022-08-24T15:07:26.495Z,18.76
2022-08-24T15:09:56.372Z,18.83
2022-08-24T15:12:44.583Z,18.62
2022-08-24T15:15:15.490Z,18.80
2022-08-24T15:18:21.951Z,18.95
2022-08-24T15:21:09.988Z,18.82
2022-08-24T15:23:53.123Z,18.71
2022-08-24T15:26:27.895Z,19.08
2022-08-24T15:28:56.617Z,19.23
2022-08-24T15:31:29.491Z,19.24
2022-08-24T15:34:03.604Z,19.27
2022-08-24T15:36:34.238Z,19.26
2022-08-24T15:39:05.666Z,19.43
2022-08-24T15:41:42.257Z,19.38
2022-08-24T15:44:23.485Z,19.30
2022-08-24T15:47:24.881Z,19.50
2022-08-24T15:50:02.908Z,19.99
2022-08-24T15:52:39.314Z,20.01
2022-08-24T15:55:15.072Z,19.69
2022-08-24T15:57:44.665Z,19.80
2022-08-24T16:00:44.229Z,19.74
2022-08-24T16:03:28.358Z,19.85
2022-08-24T16:06:16.672Z,19.90
2022-08-24T16:08:56.808Z,20.43
2022-08-24T16:11:50.301Z,19.94
2022-08-24T16:15:07.788Z,20.13
2022-08-24T16:17:41.700Z,20.41
2022-08-24T16:20:13.822Z,20.24
2022-08-24T16:22:54.558Z,20.81
2022-08-24T16:25:42.779Z,20.41
2022-08-24T16:28:23.062Z,20.75
2022-08-24T16:31:07.613Z,20.69
2022-08-24T16:33:43.827Z,20.55
2022-08-24T16:36:18.456Z,20.44
2022-08-24T16:38:51.314Z,20.27
2022-08-24T16:41:23.080Z,20.66
2022-08-24T16:43:50.500Z,20.60
2022-08-24T16:46:23.962Z,20.26
2022-08-24T16:48:54.366Z,20.23
2022-08-24T16:51:24.745Z,20.18
2022-08-24T16:53:53.072Z,20.15
2022-08-24T16:56:21.321Z,20.34
2022-08-24T16:58:49.234Z,20.39
2022-08-24T17:01:16.912Z,20.33
2022-08-24T17:03:44.312Z,20.10
2022-08-24T17:06:12.719Z,20.40
2022-08-24T17:08:40.435Z,20.15
2022-08-24T17:11:07.837Z,20.24
2022-08-24T17:13:51.010Z,20.69
2022-08-24T17:16:20.259Z,20.42
2022-08-24T17:18:47.866Z,20.55
2022-08-24T17:21:15.493Z,20.42
2022-08-24T17:23:43.502Z,20.51
2022-08-24T17:26:20.867Z,20.72
2022-08-24T17:28:52.729Z,20.38
2022-08-24T17:31:20.494Z,20.49
2022-08-24T17:33:47.797Z,20.41
2022-08-24T17:36:16.951Z,20.88
2022-08-24T17:38:51.546Z,20.66
2022-08-24T17:41:23.881Z,20.61
2022-08-24T17:43:51.677Z,20.31
2022-08-24T17:46:19.854Z,20.86
2022-08-24T17:48:48.229Z,20.76
2022-08-24T17:51:16.116Z,20.51
2022-08-24T17:53:43.542Z,20.56
2022-08-24T17:56:13.479Z,20.55
2022-08-24T17:59:00.203Z,20.76
2022-08-24T18:01:28.711Z,20.54
2022-08-24T18:03:56.128Z,20.63
2022-08-24T18:06:27.856Z,20.61
2022-08-24T18:08:58.397Z,20.65
2022-08-24T18:11:26.360Z,20.77
2022-08-24T18:13:54.761Z,21.07
2022-08-24T18:16:25.016Z,20.72
2022-08-24T18:18:52.836Z,20.74
2022-08-24T18:21:21.094Z,20.73
2022-08-24T18:23:50.777Z,20.83
2022-08-24T18:26:28.107Z,20.62
2022-08-24T18:28:59.155Z,20.81
2022-08-24T18:31:28.894Z,21.03
2022-08-24T18:33:56.142Z,21.10
2022-08-24T18:36:23.658Z,20.99
2022-08-24T18:38:50.918Z,21.23
2022-08-24T18:41:18.426Z,21.14
2022-08-24T18:43:46.133Z,21.31
2022-08-24T18:46:13.522Z,21.26
2022-08-24T18:48:40.798Z,21.21
2022-08-24T18:51:08.621Z,21.28
2022-08-24T18:53:36.165Z,21.53
2022-08-24T18:56:09.239Z,21.27
2022-08-24T18:58:39.331Z,21.21
2022-08-24T19:01:07.311Z,21.69
2022-08-24T19:03:35.154Z,21.44
2022-08-24T19:06:02.389Z,21.49
2022-08-24T19:08:29.617Z,22.04
2022-08-24T19:10:56.968Z,22.12
2022-08-24T19:13:24.225Z,22.01
2022-08-24T19:15:51.446Z,21.91
2022-08-24T19:18:21.484Z,22.06
2022-08-24T19:20:52.415Z,22.14
2022-08-24T19:23:31.664Z,22.16
2022-08-24T19:26:00.192Z,22.38
2022-08-24T19:28:28.702Z,22.67
2022-08-24T19:30:58.293Z,22.76
2022-08-24T19:33:29.715Z,22.84
2022-08-24T19:35:58.159Z,22.68
2022-08-24T19:38:27.722Z,23.08
2022-08-24T19:40:57.612Z,22.91
2022-08-24T19:43:29.920Z,23.13
2022-08-24T19:46:05.703Z,23.21
2022-08-24T19:48:35.047Z,23.24
2022-08-24T19:51:05.912Z,23.42
2022-08-24T19:53:36.777Z,23.41
2022-08-24T19:56:05.480Z,23.46
2022-08-24T19:58:51.606Z,23.38
2022-08-24T20:01:23.010Z,23.80
2022-08-24T20:03:51.176Z,23.76
2022-08-24T20:06:21.381Z,23.74
2022-08-24T20:08:49.317Z,23.75
2022-08-24T20:11:17.682Z,24.12
2022-08-24T20:13:46.203Z,24.11
2022-08-24T20:16:17.494Z,24.43
2022-08-24T20:18:44.958Z,24.39
2022-08-24T20:21:12.404Z,24.37
2022-08-24T20:23:39.988Z,24.61
2022-08-24T20:26:09.273Z,24.90
2022-08-24T20:28:51.400Z,25.07
2022-08-24T20:31:20.366Z,24.89
2022-08-24T20:33:57.574Z,25.24
2022-08-24T20:36:28.386Z,25.66
2022-08-24T20:38:57.757Z,25.50
2022-08-24T20:41:27.616Z,25.47
2022-08-24T20:43:56.761Z,25.80
2022-08-24T20:46:27.017Z,26.04
2022-08-24T20:48:56.810Z,26.15
2022-08-24T20:51:25.714Z,25.90
2022-08-24T20:53:54.066Z,25.94
2022-08-24T20:56:31.136Z,26.38
2022-08-24T20:59:03.018Z,26.35
2022-08-24T21:01:31.286Z,26.62
2022-08-24T21:04:04.165Z,26.74
2022-08-24T21:06:33.618Z,26.99
2022-08-24T21:09:00.893Z,26.93
2022-08-24T21:11:28.252Z,27.18
2022-08-24T21:13:55.753Z,27.43
2022-08-24T21:16:23.125Z,27.54
2022-08-24T21:18:51.531Z,27.39
2022-08-24T21:21:18.670Z,27.75
2022-08-24T21:23:46.359Z,27.81
2022-08-24T21:26:16.153Z,28.00
2022-08-24T21:28:44.394Z,27.81
2022-08-24T21:31:12.068Z,27.68
2022-08-24T21:33:57.633Z,27.99
2022-08-24T21:36:26.743Z,27.87
2022-08-24T21:38:54.873Z,27.97
2022-08-24T21:41:22.948Z,28.25
2022-08-24T21:43:51.574Z,28.32
2022-08-24T21:46:19.946Z,28.07
2022-08-24T21:48:48.423Z,28.40
2022-08-24T21:51:16.427Z,28.67
2022-08-24T21:53:43.584Z,28.73
2022-08-24T21:56:12.615Z,28.83
2022-08-24T21:58:40.024Z,28.72
2022-08-24T22:01:07.277Z,28.50
2022-08-24T22:03:40.140Z,28.23
2022-08-24T22:06:12.426Z,28.66
2022-08-24T22:08:43.036Z,28.24
2022-08-24T22:11:13.502Z,28.16
2022-08-24T22:13:41.916Z,28.70
2022-08-24T22:16:10.537Z,28.68
2022-08-24T22:18:38.447Z,28.71
2022-08-24T22:21:12.322Z,28.99
2022-08-24T22:23:41.086Z,28.99
2022-08-24T22:26:09.373Z,29.12
2022-08-24T22:28:38.521Z,29.19
2022-08-24T22:31:21.281Z,29.23
2022-08-24T22:33:49.682Z,29.07
2022-08-24T22:36:18.238Z,29.22
2022-08-24T22:38:46.053Z,29.16
2022-08-24T22:41:14.503Z,29.26
2022-08-24T22:44:00.371Z,28.85
2022-08-24T22:46:27.729Z,29.09
2022-08-24T22:48:55.260Z,29.29
2022-08-24T22:51:24.048Z,29.70
2022-08-24T22:53:51.702Z,29.31
2022-08-24T22:56:25.395Z,29.51
2022-08-24T22:58:52.931Z,29.90
2022-08-24T23:01:24.001Z,29.67
2022-08-24T23:03:52.655Z,30.12
2022-08-24T23:06:20.484Z,29.98
2022-08-24T23:08:47.824Z,30.39
2022-08-24T23:11:17.399Z,30.29
2022-08-24T23:13:45.492Z,30.83
2022-08-24T23:16:14.476Z,31.05
2022-08-24T23:19:00.454Z,30.94
2022-08-24T23:21:27.932Z,30.95
2022-08-24T23:23:56.577Z,30.85
2022-08-24T23:26:24.725Z,30.83
2022-08-24T23:28:52.431Z,30.94
2022-08-24T23:31:21.873Z,31.58
2022-08-24T23:33:49.505Z,31.63
2022-08-24T23:36:23.918Z,31.53
2022-08-24T23:38:55.309Z,31.92
2022-08-24T23:41:30.103Z,32.37
2022-08-24T23:44:01.238Z,32.08
2022-08-24T23:46:29.002Z,31.96
2022-08-24T23:48:57.937Z,32.19
2022-08-24T23:51:28.036Z,31.88
2022-08-24T23:53:57.104Z,31.98
2022-08-24T23:56:31.974Z,32.20
2022-08-24T23:59:10.372Z,32.42
